sensor_id;sensor_type;location;lat;lon;timestamp;P1;durP1;ratioP1;P2;durP2;ratioP2
37355;SDS011;48747;50.250;18.848;2023-08-30T00:00:01;9.58;;;6.95;;
37355;SDS011;48747;50.250;18.848;2023-08-30T00:02:04;10.63;;;7.08;;
37355;SDS011;48747;50.250;18.848;2023-08-30T00:04:09;11.33;;;7.12;;
37355;SDS011;48747;50.250;18.848;2023-08-30T00:06:12;11.75;;;6.53;;
37355;SDS011;48747;50.250;18.848;2023-08-30T00:08:17;10.05;;;6.72;;
37355;SDS011;48747;50.250;18.848;2023-08-30T00:10:20;11.28;;;6.97;;
37355;SDS011;48747;50.250;18.848;2023-08-30T00:12:24;11.05;;;7.08;;
37355;SDS011;48747;50.250;18.848;2023-08-30T00:14:27;12.33;;;7.83;;
37355;SDS011;48747;50.250;18.848;2023-08-30T00:16:31;11.35;;;7.25;;
37355;SDS011;48747;50.250;18.848;2023-08-30T00:18:35;12.73;;;8.15;;
37355;SDS011;48747;50.250;18.848;2023-08-30T00:20:38;13.88;;;9.20;;
37355;SDS011;48747;50.250;18.848;2023-08-30T00:22:42;14.03;;;9.08;;
37355;SDS011;48747;50.250;18.848;2023-08-30T00:24:45;15.08;;;9.10;;
37355;SDS011;48747;50.250;18.848;2023-08-30T00:26:48;14.98;;;9.80;;
37355;SDS011;48747;50.250;18.848;2023-08-30T00:28:51;17.77;;;11.40;;
37355;SDS011;48747;50.250;18.848;2023-08-30T00:30:55;20.80;;;13.55;;
37355;SDS011;48747;50.250;18.848;2023-08-30T00:32:58;20.55;;;12.40;;
37355;SDS011;48747;50.250;18.848;2023-08-30T00:35:01;19.27;;;12.20;;
37355;SDS011;48747;50.250;18.848;2023-08-30T00:37:04;21.35;;;13.10;;
37355;SDS011;48747;50.250;18.848;2023-08-30T00:39:08;20.72;;;14.38;;
37355;SDS011;48747;50.250;18.848;2023-08-30T00:41:11;19.67;;;13.70;;
37355;SDS011;48747;50.250;18.848;2023-08-30T00:43:14;20.43;;;14.05;;
37355;SDS011;48747;50.250;18.848;2023-08-30T00:45:17;23.60;;;15.35;;
37355;SDS011;48747;50.250;18.848;2023-08-30T00:47:21;17.82;;;12.88;;
37355;SDS011;48747;50.250;18.848;2023-08-30T00:49:24;19.17;;;12.37;;
37355;SDS011;48747;50.250;18.848;2023-08-30T00:51:27;20.25;;;12.47;;
37355;SDS011;48747;50.250;18.848;2023-08-30T00:53:31;16.73;;;11.12;;
37355;SDS011;48747;50.250;18.848;2023-08-30T00:55:34;16.17;;;10.95;;
37355;SDS011;48747;50.250;18.848;2023-08-30T00:57:39;15.72;;;10.32;;
37355;SDS011;48747;50.250;18.848;2023-08-30T00:59:42;15.10;;;10.40;;
37355;SDS011;48747;50.250;18.848;2023-08-30T01:01:45;21.97;;;13.80;;
37355;SDS011;48747;50.250;18.848;2023-08-30T01:03:48;20.27;;;14.18;;
37355;SDS011;48747;50.250;18.848;2023-08-30T01:05:51;18.82;;;13.03;;
37355;SDS011;48747;50.250;18.848;2023-08-30T01:07:54;23.85;;;15.40;;
37355;SDS011;48747;50.250;18.848;2023-08-30T01:09:57;24.27;;;14.10;;
37355;SDS011;48747;50.250;18.848;2023-08-30T01:12:04;25.32;;;16.97;;
37355;SDS011;48747;50.250;18.848;2023-08-30T01:16:45;22.77;;;12.87;;
37355;SDS011;48747;50.250;18.848;2023-08-30T01:18:49;20.05;;;12.70;;
37355;SDS011;48747;50.250;18.848;2023-08-30T01:20:54;16.57;;;11.38;;
37355;SDS011;48747;50.250;18.848;2023-08-30T01:22:59;16.48;;;11.05;;
37355;SDS011;48747;50.250;18.848;2023-08-30T01:25:24;17.67;;;10.58;;
37355;SDS011;48747;50.250;18.848;2023-08-30T01:27:42;17.27;;;10.50;;
37355;SDS011;48747;50.250;18.848;2023-08-30T01:29:47;19.70;;;12.13;;
37355;SDS011;48747;50.250;18.848;2023-08-30T01:31:52;18.95;;;10.45;;
37355;SDS011;48747;50.250;18.848;2023-08-30T01:33:57;21.75;;;12.98;;
37355;SDS011;48747;50.250;18.848;2023-08-30T01:36:00;20.35;;;13.28;;
37355;SDS011;48747;50.250;18.848;2023-08-30T01:38:04;22.58;;;13.58;;
37355;SDS011;48747;50.250;18.848;2023-08-30T01:40:09;17.85;;;12.47;;
37355;SDS011;48747;50.250;18.848;2023-08-30T01:42:13;20.60;;;12.93;;
37355;SDS011;48747;50.250;18.848;2023-08-30T01:44:18;19.60;;;12.10;;
37355;SDS011;48747;50.250;18.848;2023-08-30T01:46:22;18.80;;;13.30;;
37355;SDS011;48747;50.250;18.848;2023-08-30T01:48:26;22.40;;;14.38;;
37355;SDS011;48747;50.250;18.848;2023-08-30T01:50:30;23.40;;;13.70;;
37355;SDS011;48747;50.250;18.848;2023-08-30T01:52:35;22.87;;;14.45;;
37355;SDS011;48747;50.250;18.848;2023-08-30T01:54:39;23.95;;;13.83;;
37355;SDS011;48747;50.250;18.848;2023-08-30T01:56:45;24.52;;;15.35;;
37355;SDS011;48747;50.250;18.848;2023-08-30T01:58:49;28.55;;;15.72;;
37355;SDS011;48747;50.250;18.848;2023-08-30T02:00:52;25.80;;;16.40;;
37355;SDS011;48747;50.250;18.848;2023-08-30T02:02:56;29.32;;;16.77;;
37355;SDS011;48747;50.250;18.848;2023-08-30T02:04:59;28.47;;;16.52;;
37355;SDS011;48747;50.250;18.848;2023-08-30T02:07:03;26.95;;;16.65;;
37355;SDS011;48747;50.250;18.848;2023-08-30T02:09:28;28.67;;;16.50;;
37355;SDS011;48747;50.250;18.848;2023-08-30T02:11:23;31.00;;;17.12;;
37355;SDS011;48747;50.250;18.848;2023-08-30T02:13:29;28.52;;;16.90;;
37355;SDS011;48747;50.250;18.848;2023-08-30T02:15:33;29.75;;;18.17;;
37355;SDS011;48747;50.250;18.848;2023-08-30T02:17:39;35.13;;;17.77;;
37355;SDS011;48747;50.250;18.848;2023-08-30T02:19:42;32.00;;;18.17;;
37355;SDS011;48747;50.250;18.848;2023-08-30T02:21:46;35.10;;;18.85;;
37355;SDS011;48747;50.250;18.848;2023-08-30T02:23:52;34.73;;;19.30;;
37355;SDS011;48747;50.250;18.848;2023-08-30T02:25:55;33.85;;;19.77;;
37355;SDS011;48747;50.250;18.848;2023-08-30T02:27:58;36.15;;;19.25;;
37355;SDS011;48747;50.250;18.848;2023-08-30T02:30:02;37.95;;;20.92;;
37355;SDS011;48747;50.250;18.848;2023-08-30T02:32:05;41.88;;;21.27;;
37355;SDS011;48747;50.250;18.848;2023-08-30T02:34:08;35.43;;;20.50;;
37355;SDS011;48747;50.250;18.848;2023-08-30T02:36:11;37.70;;;21.00;;
37355;SDS011;48747;50.250;18.848;2023-08-30T02:38:14;41.65;;;23.85;;
37355;SDS011;48747;50.250;18.848;2023-08-30T02:40:18;38.50;;;20.50;;
37355;SDS011;48747;50.250;18.848;2023-08-30T02:42:21;42.00;;;22.48;;
37355;SDS011;48747;50.250;18.848;2023-08-30T02:44:24;35.48;;;21.23;;
37355;SDS011;48747;50.250;18.848;2023-08-30T02:46:27;28.70;;;17.50;;
37355;SDS011;48747;50.250;18.848;2023-08-30T02:48:31;37.88;;;19.92;;
37355;SDS011;48747;50.250;18.848;2023-08-30T02:50:34;38.85;;;19.48;;
37355;SDS011;48747;50.250;18.848;2023-08-30T02:52:37;44.65;;;21.02;;
37355;SDS011;48747;50.250;18.848;2023-08-30T02:54:40;40.60;;;22.48;;
37355;SDS011;48747;50.250;18.848;2023-08-30T02:56:44;40.17;;;20.17;;
37355;SDS011;48747;50.250;18.848;2023-08-30T02:58:47;36.08;;;20.02;;
37355;SDS011;48747;50.250;18.848;2023-08-30T03:00:50;36.45;;;19.27;;
37355;SDS011;48747;50.250;18.848;2023-08-30T03:02:53;41.70;;;21.37;;
37355;SDS011;48747;50.250;18.848;2023-08-30T03:04:56;35.83;;;20.02;;
37355;SDS011;48747;50.250;18.848;2023-08-30T03:07:00;34.53;;;20.15;;
37355;SDS011;48747;50.250;18.848;2023-08-30T03:09:03;38.25;;;20.17;;
37355;SDS011;48747;50.250;18.848;2023-08-30T03:11:08;29.90;;;17.98;;
37355;SDS011;48747;50.250;18.848;2023-08-30T03:13:12;34.20;;;20.08;;
37355;SDS011;48747;50.250;18.848;2023-08-30T03:15:15;38.20;;;20.12;;
37355;SDS011;48747;50.250;18.848;2023-08-30T03:17:18;35.50;;;20.45;;
37355;SDS011;48747;50.250;18.848;2023-08-30T03:19:21;33.13;;;19.17;;
37355;SDS011;48747;50.250;18.848;2023-08-30T03:21:24;29.52;;;17.90;;
37355;SDS011;48747;50.250;18.848;2023-08-30T03:23:27;25.37;;;15.38;;
37355;SDS011;48747;50.250;18.848;2023-08-30T03:25:31;24.05;;;15.25;;
37355;SDS011;48747;50.250;18.848;2023-08-30T03:27:34;24.07;;;13.78;;
37355;SDS011;48747;50.250;18.848;2023-08-30T03:29:37;20.95;;;12.70;;
37355;SDS011;48747;50.250;18.848;2023-08-30T03:31:40;20.85;;;12.58;;
37355;SDS011;48747;50.250;18.848;2023-08-30T03:33:44;19.23;;;12.20;;
37355;SDS011;48747;50.250;18.848;2023-08-30T03:35:48;18.95;;;12.30;;
37355;SDS011;48747;50.250;18.848;2023-08-30T03:37:51;20.23;;;12.95;;
37355;SDS011;48747;50.250;18.848;2023-08-30T03:39:54;20.45;;;12.43;;
37355;SDS011;48747;50.250;18.848;2023-08-30T03:41:57;17.57;;;11.53;;
37355;SDS011;48747;50.250;18.848;2023-08-30T03:44:00;23.40;;;13.83;;
37355;SDS011;48747;50.250;18.848;2023-08-30T03:46:03;19.02;;;11.22;;
37355;SDS011;48747;50.250;18.848;2023-08-30T03:48:06;18.30;;;11.45;;
37355;SDS011;48747;50.250;18.848;2023-08-30T03:50:09;18.07;;;11.35;;
37355;SDS011;48747;50.250;18.848;2023-08-30T03:52:12;19.35;;;12.00;;
37355;SDS011;48747;50.250;18.848;2023-08-30T03:54:15;18.87;;;12.15;;
37355;SDS011;48747;50.250;18.848;2023-08-30T03:56:18;21.30;;;12.98;;
37355;SDS011;48747;50.250;18.848;2023-08-30T03:58:21;18.25;;;11.85;;
37355;SDS011;48747;50.250;18.848;2023-08-30T04:00:24;16.60;;;11.25;;
37355;SDS011;48747;50.250;18.848;2023-08-30T04:02:27;20.27;;;12.33;;
37355;SDS011;48747;50.250;18.848;2023-08-30T04:04:31;21.33;;;12.28;;
37355;SDS011;48747;50.250;18.848;2023-08-30T04:06:34;19.77;;;12.40;;
37355;SDS011;48747;50.250;18.848;2023-08-30T04:08:37;17.42;;;11.93;;
37355;SDS011;48747;50.250;18.848;2023-08-30T04:10:40;17.75;;;10.95;;
37355;SDS011;48747;50.250;18.848;2023-08-30T04:12:45;20.12;;;11.80;;
37355;SDS011;48747;50.250;18.848;2023-08-30T04:14:48;17.57;;;10.80;;
37355;SDS011;48747;50.250;18.848;2023-08-30T04:16:51;15.93;;;10.53;;
37355;SDS011;48747;50.250;18.848;2023-08-30T04:18:54;19.30;;;11.70;;
37355;SDS011;48747;50.250;18.848;2023-08-30T04:20:58;20.37;;;11.78;;
37355;SDS011;48747;50.250;18.848;2023-08-30T04:23:02;19.52;;;11.38;;
37355;SDS011;48747;50.250;18.848;2023-08-30T04:25:06;24.43;;;13.20;;
37355;SDS011;48747;50.250;18.848;2023-08-30T04:27:10;21.17;;;12.73;;
37355;SDS011;48747;50.250;18.848;2023-08-30T04:29:13;19.55;;;12.28;;
37355;SDS011;48747;50.250;18.848;2023-08-30T04:31:16;20.12;;;12.25;;
37355;SDS011;48747;50.250;18.848;2023-08-30T04:33:19;21.77;;;12.03;;
37355;SDS011;48747;50.250;18.848;2023-08-30T04:35:22;19.50;;;12.37;;
37355;SDS011;48747;50.250;18.848;2023-08-30T04:40:05;18.57;;;11.60;;
37355;SDS011;48747;50.250;18.848;2023-08-30T04:47:58;18.25;;;10.55;;
37355;SDS011;48747;50.250;18.848;2023-08-30T04:50:01;15.15;;;10.10;;
37355;SDS011;48747;50.250;18.848;2023-08-30T04:52:04;16.35;;;10.90;;
37355;SDS011;48747;50.250;18.848;2023-08-30T04:54:07;16.00;;;10.55;;
37355;SDS011;48747;50.250;18.848;2023-08-30T04:56:11;16.52;;;9.93;;
37355;SDS011;48747;50.250;18.848;2023-08-30T04:58:15;18.90;;;10.00;;
37355;SDS011;48747;50.250;18.848;2023-08-30T05:00:18;13.18;;;8.93;;
37355;SDS011;48747;50.250;18.848;2023-08-30T05:02:21;17.07;;;9.63;;
37355;SDS011;48747;50.250;18.848;2023-08-30T05:04:24;14.43;;;9.30;;
37355;SDS011;48747;50.250;18.848;2023-08-30T05:06:27;14.15;;;8.95;;
37355;SDS011;48747;50.250;18.848;2023-08-30T05:08:31;13.62;;;8.63;;
37355;SDS011;48747;50.250;18.848;2023-08-30T05:10:34;14.18;;;9.08;;
37355;SDS011;48747;50.250;18.848;2023-08-30T05:12:38;14.75;;;8.55;;
37355;SDS011;48747;50.250;18.848;2023-08-30T05:14:43;14.05;;;8.63;;
37355;SDS011;48747;50.250;18.848;2023-08-30T05:16:46;13.80;;;7.97;;
37355;SDS011;48747;50.250;18.848;2023-08-30T05:18:51;11.78;;;7.92;;
37355;SDS011;48747;50.250;18.848;2023-08-30T05:20:55;12.55;;;7.80;;
37355;SDS011;48747;50.250;18.848;2023-08-30T05:22:58;10.48;;;7.30;;
37355;SDS011;48747;50.250;18.848;2023-08-30T05:25:01;12.18;;;7.67;;
37355;SDS011;48747;50.250;18.848;2023-08-30T05:27:05;8.50;;;6.65;;
37355;SDS011;48747;50.250;18.848;2023-08-30T05:29:08;9.78;;;7.08;;
37355;SDS011;48747;50.250;18.848;2023-08-30T05:31:11;9.60;;;6.28;;
37355;SDS011;48747;50.250;18.848;2023-08-30T05:33:14;10.55;;;6.42;;
37355;SDS011;48747;50.250;18.848;2023-08-30T05:35:17;7.83;;;6.20;;
37355;SDS011;48747;50.250;18.848;2023-08-30T05:37:20;10.23;;;5.60;;
37355;SDS011;48747;50.250;18.848;2023-08-30T05:39:23;10.15;;;5.78;;
37355;SDS011;48747;50.250;18.848;2023-08-30T05:41:26;7.22;;;5.08;;
37355;SDS011;48747;50.250;18.848;2023-08-30T05:43:29;9.08;;;5.45;;
37355;SDS011;48747;50.250;18.848;2023-08-30T05:45:33;7.83;;;5.08;;
37355;SDS011;48747;50.250;18.848;2023-08-30T05:47:36;5.90;;;4.78;;
37355;SDS011;48747;50.250;18.848;2023-08-30T05:49:39;10.18;;;4.37;;
37355;SDS011;48747;50.250;18.848;2023-08-30T05:51:42;5.40;;;3.95;;
37355;SDS011;48747;50.250;18.848;2023-08-30T05:53:45;6.58;;;3.77;;
37355;SDS011;48747;50.250;18.848;2023-08-30T05:55:48;5.15;;;3.98;;
37355;SDS011;48747;50.250;18.848;2023-08-30T05:57:51;6.67;;;4.70;;
37355;SDS011;48747;50.250;18.848;2023-08-30T05:59:54;6.10;;;4.03;;
37355;SDS011;48747;50.250;18.848;2023-08-30T06:01:57;5.72;;;4.40;;
37355;SDS011;48747;50.250;18.848;2023-08-30T06:04:00;6.92;;;4.28;;
37355;SDS011;48747;50.250;18.848;2023-08-30T06:06:05;7.75;;;4.42;;
37355;SDS011;48747;50.250;18.848;2023-08-30T06:08:08;5.15;;;3.45;;
37355;SDS011;48747;50.250;18.848;2023-08-30T06:10:12;3.98;;;3.10;;
37355;SDS011;48747;50.250;18.848;2023-08-30T06:12:15;4.70;;;2.70;;
37355;SDS011;48747;50.250;18.848;2023-08-30T06:14:18;5.17;;;2.65;;
37355;SDS011;48747;50.250;18.848;2023-08-30T06:16:22;4.08;;;2.30;;
37355;SDS011;48747;50.250;18.848;2023-08-30T06:18:26;3.02;;;2.20;;
37355;SDS011;48747;50.250;18.848;2023-08-30T06:20:31;4.05;;;1.92;;
37355;SDS011;48747;50.250;18.848;2023-08-30T06:22:34;5.50;;;2.22;;
37355;SDS011;48747;50.250;18.848;2023-08-30T06:24:38;2.77;;;2.02;;
37355;SDS011;48747;50.250;18.848;2023-08-30T06:26:46;5.80;;;2.10;;
37355;SDS011;48747;50.250;18.848;2023-08-30T06:28:48;4.03;;;2.35;;
37355;SDS011;48747;50.250;18.848;2023-08-30T06:30:51;6.22;;;2.20;;
37355;SDS011;48747;50.250;18.848;2023-08-30T06:32:54;3.50;;;2.00;;
37355;SDS011;48747;50.250;18.848;2023-08-30T06:34:57;3.62;;;2.27;;
37355;SDS011;48747;50.250;18.848;2023-08-30T06:37:00;3.45;;;2.10;;
37355;SDS011;48747;50.250;18.848;2023-08-30T06:39:03;3.85;;;1.98;;
37355;SDS011;48747;50.250;18.848;2023-08-30T06:41:07;4.58;;;2.30;;
37355;SDS011;48747;50.250;18.848;2023-08-30T06:43:10;2.92;;;2.50;;
37355;SDS011;48747;50.250;18.848;2023-08-30T06:45:13;3.30;;;2.47;;
37355;SDS011;48747;50.250;18.848;2023-08-30T06:47:17;4.40;;;2.52;;
37355;SDS011;48747;50.250;18.848;2023-08-30T06:49:22;4.65;;;2.50;;
37355;SDS011;48747;50.250;18.848;2023-08-30T06:51:25;4.33;;;3.05;;
37355;SDS011;48747;50.250;18.848;2023-08-30T06:53:28;4.47;;;3.08;;
37355;SDS011;48747;50.250;18.848;2023-08-30T06:55:32;3.80;;;2.75;;
37355;SDS011;48747;50.250;18.848;2023-08-30T06:57:36;4.12;;;2.50;;
37355;SDS011;48747;50.250;18.848;2023-08-30T06:59:39;4.87;;;2.58;;
37355;SDS011;48747;50.250;18.848;2023-08-30T07:01:43;3.87;;;2.62;;
37355;SDS011;48747;50.250;18.848;2023-08-30T07:03:46;3.35;;;2.58;;
37355;SDS011;48747;50.250;18.848;2023-08-30T07:05:50;3.35;;;2.58;;
37355;SDS011;48747;50.250;18.848;2023-08-30T07:07:56;5.92;;;2.40;;
37355;SDS011;48747;50.250;18.848;2023-08-30T07:10:02;3.10;;;2.65;;
37355;SDS011;48747;50.250;18.848;2023-08-30T07:14:44;3.67;;;2.65;;
37355;SDS011;48747;50.250;18.848;2023-08-30T07:17:08;3.25;;;2.45;;
37355;SDS011;48747;50.250;18.848;2023-08-30T07:19:22;3.85;;;2.83;;
37355;SDS011;48747;50.250;18.848;2023-08-30T07:21:13;5.92;;;2.60;;
37355;SDS011;48747;50.250;18.848;2023-08-30T07:23:17;3.95;;;2.25;;
37355;SDS011;48747;50.250;18.848;2023-08-30T07:25:21;2.90;;;2.22;;
37355;SDS011;48747;50.250;18.848;2023-08-30T07:27:24;4.00;;;2.12;;
37355;SDS011;48747;50.250;18.848;2023-08-30T07:29:33;3.15;;;2.05;;
37355;SDS011;48747;50.250;18.848;2023-08-30T07:31:35;3.47;;;1.72;;
37355;SDS011;48747;50.250;18.848;2023-08-30T07:33:39;4.12;;;2.00;;
37355;SDS011;48747;50.250;18.848;2023-08-30T07:35:44;4.40;;;2.20;;
37355;SDS011;48747;50.250;18.848;2023-08-30T07:37:48;3.67;;;2.00;;
37355;SDS011;48747;50.250;18.848;2023-08-30T07:39:52;5.03;;;2.00;;
37355;SDS011;48747;50.250;18.848;2023-08-30T07:41:56;2.87;;;1.90;;
37355;SDS011;48747;50.250;18.848;2023-08-30T07:44:04;3.67;;;1.62;;
37355;SDS011;48747;50.250;18.848;2023-08-30T07:46:05;3.47;;;1.87;;
37355;SDS011;48747;50.250;18.848;2023-08-30T07:48:08;5.08;;;2.30;;
37355;SDS011;48747;50.250;18.848;2023-08-30T07:50:13;3.08;;;2.05;;
37355;SDS011;48747;50.250;18.848;2023-08-30T07:52:16;4.62;;;2.27;;
37355;SDS011;48747;50.250;18.848;2023-08-30T07:54:21;2.47;;;2.12;;
37355;SDS011;48747;50.250;18.848;2023-08-30T07:56:24;4.85;;;2.52;;
37355;SDS011;48747;50.250;18.848;2023-08-30T07:58:27;3.62;;;2.80;;
37355;SDS011;48747;50.250;18.848;2023-08-30T08:00:30;4.90;;;3.08;;
37355;SDS011;48747;50.250;18.848;2023-08-30T08:02:33;4.67;;;3.15;;
37355;SDS011;48747;50.250;18.848;2023-08-30T08:04:36;5.28;;;3.42;;
37355;SDS011;48747;50.250;18.848;2023-08-30T08:06:39;8.98;;;4.70;;
37355;SDS011;48747;50.250;18.848;2023-08-30T08:08:43;7.62;;;4.70;;
37355;SDS011;48747;50.250;18.848;2023-08-30T08:10:46;6.42;;;4.53;;
37355;SDS011;48747;50.250;18.848;2023-08-30T08:12:50;6.28;;;4.33;;
37355;SDS011;48747;50.250;18.848;2023-08-30T08:14:53;8.15;;;4.00;;
37355;SDS011;48747;50.250;18.848;2023-08-30T08:16:56;6.03;;;4.65;;
37355;SDS011;48747;50.250;18.848;2023-08-30T08:18:59;5.03;;;4.15;;
37355;SDS011;48747;50.250;18.848;2023-08-30T08:21:02;5.10;;;4.33;;
37355;SDS011;48747;50.250;18.848;2023-08-30T08:23:06;8.28;;;4.62;;
37355;SDS011;48747;50.250;18.848;2023-08-30T08:25:12;6.10;;;4.58;;
37355;SDS011;48747;50.250;18.848;2023-08-30T08:27:15;6.78;;;4.30;;
37355;SDS011;48747;50.250;18.848;2023-08-30T08:29:19;5.42;;;4.37;;
37355;SDS011;48747;50.250;18.848;2023-08-30T08:31:22;4.40;;;2.98;;
37355;SDS011;48747;50.250;18.848;2023-08-30T08:33:25;5.28;;;2.83;;
37355;SDS011;48747;50.250;18.848;2023-08-30T08:35:28;4.40;;;2.35;;
37355;SDS011;48747;50.250;18.848;2023-08-30T08:37:31;2.62;;;2.20;;
37355;SDS011;48747;50.250;18.848;2023-08-30T08:39:35;3.67;;;2.65;;
37355;SDS011;48747;50.250;18.848;2023-08-30T08:41:39;4.12;;;2.42;;
37355;SDS011;48747;50.250;18.848;2023-08-30T08:43:45;5.28;;;2.30;;
37355;SDS011;48747;50.250;18.848;2023-08-30T08:45:50;3.25;;;2.40;;
37355;SDS011;48747;50.250;18.848;2023-08-30T08:47:54;2.37;;;2.00;;
37355;SDS011;48747;50.250;18.848;2023-08-30T08:49:57;1.95;;;1.67;;
37355;SDS011;48747;50.250;18.848;2023-08-30T08:52:02;2.40;;;1.90;;
37355;SDS011;48747;50.250;18.848;2023-08-30T08:54:06;2.98;;;2.25;;
37355;SDS011;48747;50.250;18.848;2023-08-30T08:56:11;2.67;;;1.70;;
37355;SDS011;48747;50.250;18.848;2023-08-30T08:58:36;1.70;;;1.37;;
37355;SDS011;48747;50.250;18.848;2023-08-30T09:00:37;1.70;;;1.55;;
37355;SDS011;48747;50.250;18.848;2023-08-30T09:02:40;1.55;;;1.20;;
37355;SDS011;48747;50.250;18.848;2023-08-30T09:04:47;2.05;;;1.25;;
37355;SDS011;48747;50.250;18.848;2023-08-30T09:06:53;2.70;;;1.10;;
37355;SDS011;48747;50.250;18.848;2023-08-30T09:09:02;2.20;;;1.20;;
37355;SDS011;48747;50.250;18.848;2023-08-30T09:11:06;2.37;;;1.30;;
37355;SDS011;48747;50.250;18.848;2023-08-30T09:13:09;1.50;;;1.12;;
37355;SDS011;48747;50.250;18.848;2023-08-30T09:15:12;3.40;;;1.30;;
37355;SDS011;48747;50.250;18.848;2023-08-30T09:17:18;2.22;;;1.40;;
37355;SDS011;48747;50.250;18.848;2023-08-30T09:19:21;1.80;;;1.17;;
37355;SDS011;48747;50.250;18.848;2023-08-30T09:21:24;2.15;;;1.45;;
37355;SDS011;48747;50.250;18.848;2023-08-30T09:23:28;1.92;;;1.30;;
37355;SDS011;48747;50.250;18.848;2023-08-30T09:25:31;1.92;;;1.45;;
37355;SDS011;48747;50.250;18.848;2023-08-30T09:27:34;1.57;;;1.30;;
37355;SDS011;48747;50.250;18.848;2023-08-30T09:29:39;2.05;;;1.27;;
37355;SDS011;48747;50.250;18.848;2023-08-30T09:31:44;1.40;;;1.30;;
37355;SDS011;48747;50.250;18.848;2023-08-30T09:33:48;2.25;;;1.57;;
37355;SDS011;48747;50.250;18.848;2023-08-30T09:35:51;1.65;;;1.30;;
37355;SDS011;48747;50.250;18.848;2023-08-30T09:37:54;2.90;;;1.40;;
37355;SDS011;48747;50.250;18.848;2023-08-30T09:39:57;1.85;;;1.50;;
37355;SDS011;48747;50.250;18.848;2023-08-30T09:42:00;2.15;;;1.40;;
37355;SDS011;48747;50.250;18.848;2023-08-30T09:44:12;2.90;;;1.32;;
37355;SDS011;48747;50.250;18.848;2023-08-30T09:46:12;2.52;;;1.30;;
37355;SDS011;48747;50.250;18.848;2023-08-30T09:48:21;2.50;;;1.30;;
37355;SDS011;48747;50.250;18.848;2023-08-30T09:50:25;2.45;;;1.50;;
37355;SDS011;48747;50.250;18.848;2023-08-30T09:52:36;2.65;;;1.60;;
37355;SDS011;48747;50.250;18.848;2023-08-30T09:54:39;1.82;;;1.40;;
37355;SDS011;48747;50.250;18.848;2023-08-30T09:56:45;2.10;;;1.30;;
37355;SDS011;48747;50.250;18.848;2023-08-30T09:58:50;2.87;;;1.42;;
37355;SDS011;48747;50.250;18.848;2023-08-30T10:00:54;2.15;;;1.10;;
37355;SDS011;48747;50.250;18.848;2023-08-30T10:02:58;1.40;;;1.10;;
37355;SDS011;48747;50.250;18.848;2023-08-30T10:05:02;2.20;;;1.00;;
37355;SDS011;48747;50.250;18.848;2023-08-30T10:07:06;1.42;;;1.20;;
37355;SDS011;48747;50.250;18.848;2023-08-30T10:09:09;1.80;;;1.30;;
37355;SDS011;48747;50.250;18.848;2023-08-30T10:11:12;1.60;;;1.20;;
37355;SDS011;48747;50.250;18.848;2023-08-30T10:13:16;1.45;;;1.35;;
37355;SDS011;48747;50.250;18.848;2023-08-30T10:15:21;2.62;;;1.37;;
37355;SDS011;48747;50.250;18.848;2023-08-30T10:17:31;3.62;;;1.35;;
37355;SDS011;48747;50.250;18.848;2023-08-30T10:19:36;2.85;;;1.35;;
37355;SDS011;48747;50.250;18.848;2023-08-30T10:21:39;2.98;;;1.40;;
37355;SDS011;48747;50.250;18.848;2023-08-30T10:23:45;2.70;;;1.50;;
37355;SDS011;48747;50.250;18.848;2023-08-30T10:25:51;2.22;;;2.00;;
37355;SDS011;48747;50.250;18.848;2023-08-30T10:27:55;2.40;;;1.90;;
37355;SDS011;48747;50.250;18.848;2023-08-30T10:30:03;2.25;;;1.98;;
37355;SDS011;48747;50.250;18.848;2023-08-30T10:32:09;2.47;;;2.25;;
37355;SDS011;48747;50.250;18.848;2023-08-30T10:34:16;2.42;;;2.22;;
37355;SDS011;48747;50.250;18.848;2023-08-30T10:36:21;2.50;;;2.22;;
37355;SDS011;48747;50.250;18.848;2023-08-30T10:38:25;2.65;;;2.10;;
37355;SDS011;48747;50.250;18.848;2023-08-30T10:40:30;4.05;;;2.00;;
37355;SDS011;48747;50.250;18.848;2023-08-30T10:42:33;2.30;;;2.10;;
37355;SDS011;48747;50.250;18.848;2023-08-30T10:46:56;3.27;;;2.00;;
37355;SDS011;48747;50.250;18.848;2023-08-30T10:49:12;2.52;;;1.87;;
37355;SDS011;48747;50.250;18.848;2023-08-30T10:51:37;2.02;;;1.70;;
37355;SDS011;48747;50.250;18.848;2023-08-30T10:53:39;2.10;;;1.90;;
37355;SDS011;48747;50.250;18.848;2023-08-30T10:56:02;2.05;;;1.55;;
37355;SDS011;48747;50.250;18.848;2023-08-30T10:58:07;4.42;;;1.95;;
37355;SDS011;48747;50.250;18.848;2023-08-30T11:00:20;2.58;;;2.15;;
37355;SDS011;48747;50.250;18.848;2023-08-30T11:02:25;2.17;;;1.98;;
37355;SDS011;48747;50.250;18.848;2023-08-30T11:04:28;2.12;;;1.82;;
37355;SDS011;48747;50.250;18.848;2023-08-30T11:06:31;2.65;;;1.80;;
37355;SDS011;48747;50.250;18.848;2023-08-30T11:08:34;1.95;;;1.75;;
37355;SDS011;48747;50.250;18.848;2023-08-30T11:10:39;1.90;;;1.70;;
37355;SDS011;48747;50.250;18.848;2023-08-30T11:12:44;2.22;;;1.70;;
37355;SDS011;48747;50.250;18.848;2023-08-30T11:14:49;1.70;;;1.60;;
37355;SDS011;48747;50.250;18.848;2023-08-30T11:16:55;2.33;;;2.10;;
37355;SDS011;48747;50.250;18.848;2023-08-30T11:18:58;2.15;;;1.80;;
37355;SDS011;48747;50.250;18.848;2023-08-30T11:21:02;2.12;;;1.90;;
37355;SDS011;48747;50.250;18.848;2023-08-30T11:23:06;2.90;;;1.85;;
37355;SDS011;48747;50.250;18.848;2023-08-30T11:25:09;2.40;;;1.95;;
37355;SDS011;48747;50.250;18.848;2023-08-30T11:27:16;3.33;;;2.47;;
37355;SDS011;48747;50.250;18.848;2023-08-30T11:29:19;3.62;;;2.45;;
37355;SDS011;48747;50.250;18.848;2023-08-30T11:31:23;2.58;;;2.15;;
37355;SDS011;48747;50.250;18.848;2023-08-30T11:33:28;3.22;;;2.20;;
37355;SDS011;48747;50.250;18.848;2023-08-30T11:35:31;2.42;;;2.17;;
37355;SDS011;48747;50.250;18.848;2023-08-30T11:40:12;2.92;;;2.10;;
37355;SDS011;48747;50.250;18.848;2023-08-30T11:42:16;2.50;;;2.30;;
37355;SDS011;48747;50.250;18.848;2023-08-30T11:44:22;3.02;;;2.50;;
37355;SDS011;48747;50.250;18.848;2023-08-30T11:46:26;2.87;;;2.58;;
37355;SDS011;48747;50.250;18.848;2023-08-30T11:48:29;8.00;;;2.65;;
37355;SDS011;48747;50.250;18.848;2023-08-30T11:50:32;2.33;;;2.12;;
37355;SDS011;48747;50.250;18.848;2023-08-30T11:52:39;2.42;;;2.20;;
37355;SDS011;48747;50.250;18.848;2023-08-30T11:54:44;3.65;;;1.90;;
37355;SDS011;48747;50.250;18.848;2023-08-30T11:56:48;2.92;;;1.80;;
37355;SDS011;48747;50.250;18.848;2023-08-30T11:58:51;2.85;;;2.35;;
37355;SDS011;48747;50.250;18.848;2023-08-30T12:00:56;2.98;;;2.17;;
37355;SDS011;48747;50.250;18.848;2023-08-30T12:02:59;2.67;;;2.33;;
37355;SDS011;48747;50.250;18.848;2023-08-30T12:05:02;2.65;;;2.17;;
37355;SDS011;48747;50.250;18.848;2023-08-30T12:07:05;2.42;;;2.22;;
37355;SDS011;48747;50.250;18.848;2023-08-30T12:09:12;3.77;;;2.37;;
37355;SDS011;48747;50.250;18.848;2023-08-30T12:11:18;3.52;;;2.65;;
37355;SDS011;48747;50.250;18.848;2023-08-30T12:13:25;4.17;;;2.60;;
37355;SDS011;48747;50.250;18.848;2023-08-30T12:15:29;3.05;;;2.60;;
37355;SDS011;48747;50.250;18.848;2023-08-30T12:17:34;4.20;;;2.87;;
37355;SDS011;48747;50.250;18.848;2023-08-30T12:19:38;3.52;;;3.00;;
37355;SDS011;48747;50.250;18.848;2023-08-30T12:21:44;3.00;;;2.40;;
37355;SDS011;48747;50.250;18.848;2023-08-30T12:23:59;3.40;;;2.40;;
37355;SDS011;48747;50.250;18.848;2023-08-30T12:25:58;3.02;;;2.70;;